• Join FlightAware (Why Join?)
  • Login
  • US Flag 
02:17PM EDT


 

Airport Tracker/Info


-or-


 

Live Flight TrackerFlight Track Log ✈ SWA377 ✈ 18-Oct-2013 ✈ KMCO - KMHT

Flight Track Log - Related Links

Times and Time Zones

All times are in EDT time to prevent confusion due to time zone crossing. See the SWA377 flight status page for this flight to view local times or setup timezone preferences in your user account.

Time Position Orientation Groundspeed Altitude Reporting Facility
EDT Latitude Longitude Course Direction KTS MPH feet Rate Location/Type
07:54PM 28.3333 -81.2667 156° South 232 267 2,800  Level Orlando TRACON
07:55PM 28.3500 -81.1833 77° East 281 323 5,400 2,520 Climbing Orlando TRACON
07:56PM 28.4167 -81.1833 360° North 291 335 8,000 2,700 Climbing Orlando TRACON
07:57PM 28.5000 -81.2000 350° North 299 344 10,600 2,160 Climbing Orlando TRACON
07:58PM 28.6611 -81.2553 343° North 376 433 13,800 2,040 Climbing Jacksonville Center
07:59PM 28.7619 -81.2892 344° North 371 427 16,100 2,280 Climbing Jacksonville Center
08:00PM 28.8644 -81.3183 346° North 378 435 18,400 1,980 Climbing Jacksonville Center
08:01PM 28.9733 -81.3522 345° North 383 441 20,100 1,800 Climbing Jacksonville Center
08:02PM 29.0844 -81.3861 345° North 395 455 22,100 1,680 Climbing Jacksonville Center
08:03PM 29.1994 -81.4011 354° North 406 467 23,500 1,500 Climbing Jacksonville Center
08:04PM 29.3247 -81.4086 357° North 422 486 25,100 1,500 Climbing Jacksonville Center
08:05PM 29.4397 -81.4261 352° North 427 491 26,600 1,200 Climbing Jacksonville Center
08:06PM 29.5650 -81.4386 355° North 432 497 27,600 1,140 Climbing Jacksonville Center
08:07PM 29.6947 -81.4486 356° North 448 516 28,900 1,260 Climbing Jacksonville Center
08:08PM 29.8222 -81.4608 355° North 453 521 30,200 1,260 Climbing Jacksonville Center
08:09PM 29.9369 -81.4714 355° North 460 529 31,500 1,020 Climbing Jacksonville Center
08:10PM 30.0664 -81.4644 North 460 529 32,300 1,080 Climbing Jacksonville Center
08:11PM 30.1978 -81.4458 North 460 529 33,700 1,260 Climbing Jacksonville Center
08:12PM 30.3228 -81.4319 North 460 529 34,900 600 Climbing Jacksonville Center
08:13PM 30.4500 -81.4156 North 460 529 35,000  Climbing Jacksonville Center
08:14PM 30.5750 -81.3992 North 460 529 35,000  Level Jacksonville Center
08:15PM 30.7022 -81.3706 11° North 459 528 35,000  Level Jacksonville Center
08:16PM 30.8225 -81.3128 22° Northeast 459 528 35,000  Level Jacksonville Center
08:17PM 30.9428 -81.2553 22° Northeast 459 528 35,000  Level Jacksonville Center
08:18PM 31.0653 -81.1972 22° Northeast 464 534 35,000  Level Jacksonville Center
08:19PM 31.1897 -81.1417 21° North 474 545 35,000  Level Jacksonville Center
08:20PM 31.3122 -81.0833 22° Northeast 474 545 35,000  Level Jacksonville Center
08:21PM 31.4325 -81.0228 23° Northeast 474 545 35,000  Level Jacksonville Center
08:22PM 31.5694 -80.9614 21° North 474 545 35,000  Level Jacksonville Center
08:23PM 31.6936 -80.9025 22° Northeast 474 545 35,000  Level Jacksonville Center
08:24PM 31.8200 -80.8411 22° Northeast 474 545 35,000  Level Jacksonville Center
08:25PM 31.9422 -80.7847 21° North 474 545 35,000  Level Jacksonville Center
08:26PM 32.0542 -80.7306 22° Northeast 474 545 35,000  Level Jacksonville Center
08:27PM 32.1886 -80.6661 22° Northeast 468 539 35,000  Level Jacksonville Center
08:28PM 32.3131 -80.6064 22° Northeast 482 555 35,000  Level Jacksonville Center
08:29PM 32.4369 -80.5444 23° Northeast 476 548 35,000  Level Jacksonville Center
08:30PM 32.5592 -80.4844 22° Northeast 474 545 35,000  Level Jacksonville Center
08:31PM 32.6853 -80.4244 22° Northeast 474 545 35,000  Level Jacksonville Center
08:32PM 32.8072 -80.3667 22° Northeast 469 540 35,000  Level Jacksonville Center
08:33PM 32.9292 -80.3064 23° Northeast 469 540 35,000  Level Jacksonville Center
08:34PM 33.0450 -80.2508 22° Northeast 488 562 35,000  Level Jacksonville Center
08:35PM 33.1689 -80.1878 23° Northeast 488 562 35,000  Level Jacksonville Center
08:36PM 33.3011 -80.1242 22° Northeast 488 562 35,000  Level Jacksonville Center
08:37PM 33.4228 -80.0631 23° Northeast 488 562 35,000  Level Jacksonville Center
08:38PM 33.5467 -80.0017 22° Northeast 488 562 35,000  Level Jacksonville Center
08:39PM 33.6725 -79.9403 22° Northeast 481 554 35,000  Level Jacksonville Center
08:40PM 33.7961 -79.8786 23° Northeast 481 554 35,000  Level Jacksonville Center
08:41PM 33.9219 -79.8142 23° Northeast 481 554 35,000  Level Jacksonville Center
08:42PM 34.0478 -79.7497 23° Northeast 486 559 35,000  Level Jacksonville Center
08:43PM 34.1733 -79.6900 21° North 491 565 35,000  Level Jacksonville Center
08:45PM 34.3742 -79.5850 23° Northeast 488 562 35,000  Level Washington Center
08:46PM 34.4975 -79.5206 23° Northeast 488 562 35,000  Level Washington Center
08:47PM 34.6206 -79.4533 24° Northeast 488 562 35,000  Level Washington Center
08:48PM 34.7458 -79.3883 23° Northeast 488 562 35,000  Level Washington Center
08:49PM 34.8689 -79.3233 23° Northeast 488 562 35,000  Level Washington Center
08:50PM 34.9942 -79.2581 23° Northeast 488 562 35,000  Level Washington Center
08:51PM 35.1192 -79.1903 24° Northeast 488 562 35,000  Level Washington Center
08:52PM 35.2442 -79.1244 23° Northeast 488 562 35,000  Level Washington Center
08:53PM 35.3694 -79.0586 23° Northeast 491 565 35,000  Level Washington Center
08:54PM 35.4964 -78.9903 24° Northeast 491 565 35,000  Level Washington Center
08:55PM 35.6086 -78.9311 23° Northeast 485 558 35,000  Level Washington Center
08:56PM 35.7358 -78.8622 24° Northeast 485 558 35,000  Level Washington Center
08:57PM 35.8608 -78.7956 23° Northeast 485 558 35,000  Level Washington Center
08:58PM 35.9781 -78.6953 35° Northeast 492 566 35,000  Level Washington Center
08:59PM 36.0933 -78.5917 36° Northeast 503 579 35,000  Level Washington Center
09:00PM 36.2067 -78.4881 36° Northeast 503 579 35,000  Level Washington Center
09:01PM 36.3217 -78.3839 36° Northeast 508 585 35,000  Level Washington Center
09:02PM 36.4367 -78.2822 35° Northeast 508 585 35,000  Level Washington Center
09:03PM 36.5497 -78.1750 37° Northeast 508 585 35,000  Level Washington Center
09:04PM 36.6772 -78.0575 36° Northeast 508 585 35,000  Level Washington Center
09:05PM 36.7900 -77.9494 37° Northeast 508 585 35,000  Level Washington Center
09:06PM 36.9047 -77.8439 36° Northeast 508 585 35,000  Level Washington Center
09:07PM 37.0194 -77.7406 36° Northeast 508 585 35,000  Level Washington Center
09:08PM 37.1339 -77.6292 38° Northeast 508 585 35,000  Level Washington Center
09:09PM 37.2506 -77.5228 36° Northeast 508 585 35,000  Level Washington Center
09:10PM 37.3669 -77.4158 36° Northeast 508 585 35,000  Level Washington Center
09:11PM 37.4811 -77.3061 37° Northeast 513 590 35,000  Level Washington Center
09:12PM 37.5994 -77.1958 36° Northeast 513 590 35,000  Level Washington Center
09:13PM 37.7156 -77.0828 38° Northeast 513 590 35,000  Level Washington Center
09:14PM 37.8336 -76.9747 36° Northeast 513 590 35,000  Level Washington Center
09:15PM 37.9517 -76.8769 33° Northeast 513 590 35,000  Level Washington Center
09:16PM 38.0736 -76.7786 32° Northeast 513 590 35,000  Level Washington Center
09:17PM 38.1911 -76.6775 34° Northeast 513 590 35,000  Level Washington Center
09:18PM 38.2900 -76.5969 33° Northeast 513 590 35,000  Level Washington Center
09:19PM 38.4328 -76.4797 33° Northeast 513 590 35,000  Level Washington Center
09:20PM 38.5500 -76.3800 34° Northeast 513 590 35,000  Level Washington Center
09:21PM 38.6694 -76.2778 34° Northeast 513 590 35,000  Level Washington Center
09:22PM 38.7931 -76.1750 33° Northeast 513 590 35,000  Level Washington Center
09:23PM 38.9122 -76.0744 33° Northeast 513 590 35,000  Level Washington Center
09:24PM 39.0336 -75.9764 32° Northeast 513 590 35,000  Level Washington Center
09:25PM 39.1547 -75.8700 34° Northeast 513 590 35,000  Level Washington Center
09:26PM 39.2739 -75.7686 33° Northeast 513 590 35,000  Level Washington Center
09:27PM 39.3969 -75.6667 33° Northeast 513 590 35,000  Level Washington Center
09:28PM 39.5786 -75.5061 34° Northeast 531 611 35,000  Level New York Center
09:29PM 39.6844 -75.4133 34° Northeast 531 611 35,000  Level New York Center
09:30PM 39.8094 -75.3081 33° Northeast 526 605 35,000  Level New York Center
09:31PM 39.9303 -75.2022 34° Northeast 526 605 35,000  Level New York Center
09:32PM 40.0511 -75.0906 35° Northeast 526 605 35,000  Level New York Center
09:33PM 40.1697 -74.9839 34° Northeast 526 605 35,000  Level New York Center
09:34PM 40.2958 -74.8883 30° Northeast 526 605 35,000  Level New York Center
09:35PM 40.4269 -74.8361 17° North 499 574 35,000  Level New York Center
09:36PM 40.5583 -74.7756 19° North 493 567 35,000  Level New York Center
09:37PM 40.6892 -74.7258 16° North 493 567 35,000 -420 Level New York Center
09:38PM 40.8203 -74.6619 20° North 493 567 34,200 -900 Descending New York Center
09:39PM 40.9514 -74.6064 18° North 493 567 33,300 -1,020 Descending New York Center
09:40PM 41.0803 -74.5503 18° North 493 567 32,200 -960 Descending New York Center
09:42PM 41.2839 -74.4650 17° North 497 572 30,900 -480 Descending Boston Center
09:43PM 41.4142 -74.4108 17° North 497 572 31,000  Climbing Boston Center
09:44PM 41.5464 -74.3483 19° North 502 578 31,000 -360 Level Boston Center
09:45PM 41.6786 -74.2914 18° North 502 578 30,300 -960 Descending Boston Center
09:46PM 41.8214 -74.2286 18° North 491 565 29,200 -1,080 Descending Boston Center
09:47PM 41.9494 -74.1736 18° North 486 559 28,200 -960 Descending Boston Center
09:48PM 42.0617 -74.0619 36° Northeast 491 565 27,300 -840 Descending Boston Center
09:49PM 42.1328 -73.8875 61° Northeast 487 560 26,500 -960 Descending Boston Center
09:50PM 42.2056 -73.7125 61° Northeast 509 586 25,500 -780 Descending Boston Center
09:51PM 42.2700 -73.5511 62° Northeast 529 609 25,000 -660 Descending Boston Center
09:52PM 42.3508 -73.3700 59° Northeast 529 609 24,200 -960 Descending Boston Center
09:53PM 42.4186 -73.2050 61° Northeast 529 609 23,100 -1,080 Descending Boston Center
09:54PM 42.4883 -73.0397 60° Northeast 521 600 22,100 -1,020 Descending Boston Center
09:55PM 42.5558 -72.8714 61° Northeast 509 586 21,100 -1,320 Descending Boston Center
09:56PM 42.6231 -72.7081 61° Northeast 501 577 19,500 -2,040 Descending Boston Center
09:57PM 42.6858 -72.5644 59° Northeast 477 549 17,200 -2,400 Descending Boston Center
09:58PM 42.7442 -72.4147 62° Northeast 453 521 14,700 -2,640 Descending Boston Center
09:59PM 42.7983 -72.2561 65° Northeast 435 501 12,000 -2,220 Descending Boston Center
10:00PM 42.8083 -72.1089 85° East 395 455 10,400 -1,440 Descending Boston Center
10:01PM 42.8183 -71.9817 84° East 361 415 9,100 -1,800 Descending Boston Center
10:02PM 42.8158 -71.8628 92° East 326 375 6,900 -2,100 Descending Boston Center
10:03PM 42.8047 -71.7467 97° East 308 354 4,900 -1,800 Descending Boston Center
10:04PM 42.8353 -71.6472 67° East 279 321 3,400 -1,020 Descending Boston Center
10:05PM 42.8536 -71.5733 71° East 233 268 2,900 -840 Descending Boston Center
10:06PM 42.8739 -71.5194 63° Northeast 171 197 1,800 -960 Descending Boston Center
10:07PM 42.9050 -71.4792 43° Northeast 150 173 1,000 -720 Descending Boston Center
10:08PM 42.9358 -71.4419 41° Northeast 145 167 400 9,120 Descending Boston Center
10:09PM 42.9667 -71.4044 42° Northeast 145 167 19,000 9,120 Climbing Boston Center
10:10PM 42.9978 -71.3697 39° Northeast 145 167 19,000  Level Boston Center
10:11PM 43.0286 -71.3325 41° Northeast 145 167 19,000  Level Boston Center
10:12PM 43.0533 -71.3036 40° Northeast 145 167 19,000  Level Boston Center
10:14PM 43.0533 -71.3036 346° North 145 167 19,000  Level Boston Center
10:16PM 42.9328 -71.4358 216° Southwest  Level Estimated
10:23PM 42.9328 -71.4358 216° Southwest  Level Estimated
10:24PM 42.9328 -71.4358 216° Southwest  Level Estimated
10:25PM 42.9328 -71.4358 216° Southwest  Level Estimated
10:26PM 42.9328 -71.4358 216° Southwest  Level Estimated